createdAt,value
2023-08-03T00:01:53.147Z,15.93
2023-08-03T00:06:57.272Z,15.87
2023-08-03T00:12:01.436Z,15.87
2023-08-03T00:17:05.603Z,15.79
2023-08-03T00:22:09.785Z,15.69
2023-08-03T00:27:13.959Z,15.61
2023-08-03T00:32:18.077Z,15.69
2023-08-03T00:37:22.290Z,15.71
2023-08-03T00:42:26.413Z,15.79
2023-08-03T00:47:30.633Z,15.81
2023-08-03T00:52:34.739Z,15.84
2023-08-03T00:57:38.884Z,15.83
2023-08-03T01:02:43.200Z,15.88
2023-08-03T01:07:47.180Z,15.84
2023-08-03T01:12:51.346Z,15.86
2023-08-03T01:17:53.662Z,15.87
2023-08-03T01:22:57.811Z,15.90
2023-08-03T01:28:01.958Z,15.84
2023-08-03T01:33:06.169Z,15.70
2023-08-03T01:38:10.333Z,15.61
2023-08-03T01:43:14.431Z,15.58
2023-08-03T01:48:16.701Z,15.54
2023-08-03T01:53:20.839Z,15.58
2023-08-03T01:58:25.011Z,15.57
2023-08-03T02:03:29.157Z,15.58
2023-08-03T02:08:33.365Z,15.57
2023-08-03T02:13:37.542Z,15.61
2023-08-03T02:18:41.672Z,15.64
2023-08-03T02:23:45.804Z,15.63
2023-08-03T02:28:50.006Z,15.64
2023-08-03T02:33:54.203Z,15.63
2023-08-03T02:38:58.356Z,15.51
2023-08-03T02:44:02.454Z,15.42
2023-08-03T02:49:06.621Z,15.37
2023-08-03T02:54:10.798Z,15.38
2023-08-03T02:59:14.942Z,15.38
2023-08-03T03:04:19.112Z,15.38
2023-08-03T03:09:23.252Z,15.37
2023-08-03T03:14:27.410Z,15.35
2023-08-03T03:19:31.563Z,15.35
2023-08-03T03:24:35.753Z,15.39
2023-08-03T03:29:39.908Z,15.41
2023-08-03T03:34:44.085Z,15.43
2023-08-03T03:39:48.205Z,15.46
2023-08-03T03:44:52.408Z,15.48
2023-08-03T03:49:56.543Z,15.44
2023-08-03T03:55:00.731Z,15.44
2023-08-03T04:00:04.864Z,15.47
2023-08-03T04:05:09.029Z,15.49
2023-08-03T04:10:13.207Z,15.51
2023-08-03T04:15:17.478Z,15.54
2023-08-03T04:20:21.487Z,15.65
2023-08-03T04:25:25.726Z,15.68
2023-08-03T04:30:29.852Z,15.69
2023-08-03T04:35:34.020Z,15.77
2023-08-03T04:40:38.377Z,15.81
2023-08-03T04:45:42.305Z,15.90
2023-08-03T04:50:46.481Z,15.88
2023-08-03T04:55:50.622Z,15.90
2023-08-03T05:00:54.849Z,15.96
2023-08-03T05:05:58.945Z,16.03
2023-08-03T05:11:03.077Z,16.07
2023-08-03T05:16:07.283Z,16.05
2023-08-03T05:21:11.420Z,15.97
2023-08-03T05:26:15.574Z,15.99
2023-08-03T05:31:19.760Z,15.95
2023-08-03T05:36:23.938Z,15.91
2023-08-03T05:41:28.086Z,15.93
2023-08-03T05:46:32.249Z,15.96
2023-08-03T05:51:36.431Z,16.04
2023-08-03T05:56:40.565Z,16.16
2023-08-03T06:01:45.083Z,16.19
2023-08-03T06:06:48.904Z,16.28
2023-08-03T06:11:53.033Z,16.33
2023-08-03T06:16:57.159Z,16.38
2023-08-03T06:22:01.372Z,16.32
2023-08-03T06:27:05.520Z,16.24
2023-08-03T06:32:09.729Z,16.12
2023-08-03T06:37:13.860Z,15.90
2023-08-03T06:42:18.018Z,15.65
2023-08-03T06:47:22.215Z,15.34
2023-08-03T06:52:26.301Z,15.18
2023-08-03T06:57:30.469Z,15.22
2023-08-03T07:02:34.728Z,15.23
2023-08-03T07:07:38.787Z,15.22
2023-08-03T07:12:42.975Z,15.24
2023-08-03T07:17:45.264Z,15.22
2023-08-03T07:22:49.389Z,15.25
2023-08-03T07:27:53.552Z,15.26
2023-08-03T07:32:57.704Z,15.34
2023-08-03T07:38:01.856Z,15.36
2023-08-03T07:43:06.046Z,15.37
2023-08-03T07:48:10.195Z,15.53
2023-08-03T07:53:14.362Z,15.70
2023-08-03T07:58:18.480Z,15.81
2023-08-03T08:03:22.651Z,15.99
2023-08-03T08:08:26.945Z,16.01
2023-08-03T08:13:30.966Z,16.04
2023-08-03T08:18:35.205Z,16.16
2023-08-03T08:23:39.329Z,16.25
2023-08-03T08:28:50.590Z,16.57
2023-08-03T08:33:53.957Z,16.66
2023-08-03T08:38:51.784Z,16.80
2023-08-03T08:43:55.942Z,16.85
2023-08-03T08:49:00.247Z,16.88
2023-08-03T09:09:16.710Z,16.70
2023-08-03T09:14:20.980Z,16.57
2023-08-03T09:19:25.052Z,16.53
2023-08-03T09:29:33.432Z,17.38
2023-08-03T09:39:41.699Z,17.61
2023-08-03T09:44:45.864Z,17.56
2023-08-03T09:49:49.998Z,17.65
2023-08-03T09:59:58.342Z,17.59
2023-08-03T10:05:02.510Z,17.74
2023-08-03T10:10:06.698Z,17.60
2023-08-03T10:15:10.799Z,17.63
2023-08-03T10:20:14.996Z,17.46
2023-08-03T10:25:19.128Z,17.80
2023-08-03T10:30:23.332Z,18.33
2023-08-03T10:35:27.450Z,18.56
2023-08-03T10:40:31.634Z,18.57
2023-08-03T10:45:35.805Z,18.28
2023-08-03T10:50:39.949Z,17.95
2023-08-03T10:55:44.120Z,18.07
2023-08-03T11:00:48.272Z,18.51
2023-08-03T11:05:52.417Z,18.57
2023-08-03T11:10:56.591Z,18.27
2023-08-03T11:16:00.761Z,18.17
2023-08-03T11:21:04.860Z,18.22
2023-08-03T11:26:09.067Z,18.54
2023-08-03T11:31:13.229Z,18.86
2023-08-03T11:36:17.348Z,18.75
2023-08-03T11:41:28.299Z,19.00
2023-08-03T11:46:25.730Z,18.70
2023-08-03T11:51:29.831Z,18.59
2023-08-03T11:56:45.830Z,18.62
2023-08-03T12:01:38.248Z,18.54
2023-08-03T12:16:50.643Z,19.57
2023-08-03T12:27:04.449Z,19.49
2023-08-03T12:32:03.130Z,19.21
2023-08-03T12:37:07.282Z,18.98
2023-08-03T12:42:11.445Z,18.92
2023-08-03T12:47:13.864Z,19.14
2023-08-03T12:52:17.852Z,19.13
2023-08-03T12:57:22.563Z,19.21
2023-08-03T13:02:26.263Z,18.76
2023-08-03T13:07:30.356Z,18.82
2023-08-03T13:12:34.495Z,18.82
2023-08-03T13:17:38.850Z,18.70
2023-08-03T13:22:42.869Z,19.15
2023-08-03T13:27:46.983Z,19.11
2023-08-03T13:32:51.231Z,19.24
2023-08-03T13:42:59.470Z,19.42
2023-08-03T13:48:03.678Z,19.00
2023-08-03T13:53:07.825Z,19.13
2023-08-03T13:58:13.150Z,19.05
2023-08-03T14:03:16.616Z,19.39
2023-08-03T14:08:20.349Z,19.47
2023-08-03T14:13:57.205Z,19.29
2023-08-03T14:23:32.760Z,19.24
2023-08-03T14:33:41.141Z,19.30
2023-08-03T14:38:45.222Z,19.25
2023-08-03T14:43:49.397Z,19.42
2023-08-03T14:53:57.724Z,19.16
2023-08-03T14:59:01.856Z,18.88
2023-08-03T15:04:08.254Z,18.65
2023-08-03T15:09:10.225Z,18.41
2023-08-03T15:14:14.337Z,18.52
2023-08-03T15:19:23.543Z,18.48
2023-08-03T15:24:23.440Z,18.55
2023-08-03T15:29:28.176Z,18.26
2023-08-03T15:34:38.630Z,18.05
2023-08-03T15:39:36.148Z,17.98
2023-08-03T15:44:41.847Z,17.78
2023-08-03T15:49:47.647Z,17.56
2023-08-03T15:54:53.368Z,17.28
2023-08-03T15:59:51.763Z,17.08
2023-08-03T16:04:55.911Z,16.90
2023-08-03T16:10:00.107Z,16.79
2023-08-03T16:15:04.243Z,16.78
2023-08-03T16:20:08.459Z,16.86
2023-08-03T16:25:12.608Z,17.01
2023-08-03T16:30:16.706Z,17.35
2023-08-03T16:35:20.942Z,17.52
2023-08-03T16:40:25.070Z,17.48
2023-08-03T16:45:29.311Z,17.42
2023-08-03T16:50:33.363Z,17.36
2023-08-03T16:55:37.536Z,17.38
2023-08-03T17:00:41.706Z,17.43
2023-08-03T17:05:45.833Z,17.24
2023-08-03T17:10:49.974Z,17.25
2023-08-03T17:15:54.237Z,17.28
2023-08-03T17:20:58.383Z,17.13
2023-08-03T17:26:02.612Z,17.09
2023-08-03T17:31:06.790Z,16.97
2023-08-03T17:36:10.844Z,16.87
2023-08-03T17:41:14.927Z,16.79
2023-08-03T17:46:19.173Z,16.71
2023-08-03T17:51:23.310Z,16.62
2023-08-03T17:56:27.420Z,16.59
2023-08-03T18:01:31.701Z,16.53
2023-08-03T18:06:35.778Z,16.50
2023-08-03T18:11:39.938Z,16.45
2023-08-03T18:16:42.526Z,16.44
2023-08-03T18:21:46.370Z,16.35
2023-08-03T18:26:50.510Z,16.35
2023-08-03T18:31:54.693Z,16.35
2023-08-03T18:36:58.850Z,16.23
2023-08-03T18:42:03.006Z,16.12
2023-08-03T18:47:05.243Z,16.05
2023-08-03T18:52:09.400Z,15.98
2023-08-03T18:57:13.571Z,15.88
2023-08-03T19:02:17.728Z,15.78
2023-08-03T19:07:21.957Z,15.70
2023-08-03T19:12:26.056Z,15.66
2023-08-03T19:17:30.202Z,15.58
2023-08-03T19:22:36.394Z,15.52
2023-08-03T19:27:38.689Z,15.48
2023-08-03T19:32:42.761Z,15.46
2023-08-03T19:37:46.823Z,15.40
2023-08-03T19:42:51.017Z,15.33
2023-08-03T19:47:55.261Z,15.31
2023-08-03T20:08:14.481Z,15.24
2023-08-03T20:13:15.983Z,15.23
2023-08-03T20:18:21.842Z,15.22
2023-08-03T20:23:24.312Z,15.21
2023-08-03T20:28:28.461Z,15.19
2023-08-03T20:33:32.700Z,15.18
2023-08-03T20:38:36.806Z,15.18
2023-08-03T20:48:45.148Z,15.14
2023-08-03T20:53:49.285Z,15.13
2023-08-03T20:58:53.475Z,15.13
2023-08-03T21:04:00.241Z,15.12
2023-08-03T21:09:01.718Z,15.12
2023-08-03T21:14:05.933Z,15.10
2023-08-03T21:19:10.432Z,15.09
2023-08-03T21:24:14.180Z,15.05
2023-08-03T21:29:18.397Z,15.03
2023-08-03T21:34:22.545Z,15.01
2023-08-03T21:39:26.702Z,14.98
2023-08-03T21:44:30.858Z,14.96
2023-08-03T21:49:35.049Z,14.90
2023-08-03T21:54:39.211Z,14.84
2023-08-03T21:59:43.307Z,14.82
2023-08-03T22:04:47.488Z,14.79
2023-08-03T22:09:51.677Z,14.76
2023-08-03T22:14:55.832Z,14.72
2023-08-03T22:19:59.981Z,14.69
2023-08-03T22:25:04.149Z,14.66
2023-08-03T22:30:08.310Z,14.64
2023-08-03T22:35:12.477Z,14.63
2023-08-03T22:40:16.599Z,14.60
2023-08-03T22:45:20.831Z,14.61
2023-08-03T22:50:24.925Z,14.59
2023-08-03T22:55:29.072Z,14.61
2023-08-03T23:00:33.271Z,14.60
2023-08-03T23:05:37.416Z,14.57
2023-08-03T23:10:41.595Z,14.56
2023-08-03T23:15:45.721Z,14.54
2023-08-03T23:20:49.882Z,14.54
2023-08-03T23:25:54.052Z,14.53
2023-08-03T23:30:58.204Z,14.53
2023-08-03T23:36:02.370Z,14.52
2023-08-03T23:41:06.526Z,14.49
2023-08-03T23:46:10.743Z,14.50
2023-08-03T23:51:14.845Z,14.50
2023-08-03T23:56:19.022Z,14.49
